createdAt,value
2023-04-05T00:04:24.449Z,0.22
2023-04-05T00:09:28.361Z,0.21
2023-04-05T00:14:32.501Z,0.15
2023-04-05T00:19:36.753Z,0.15
2023-04-05T00:24:40.869Z,0.04
2023-04-05T00:29:45.032Z,-0.04
2023-04-05T00:34:49.206Z,-0.05
2023-04-05T00:39:53.353Z,-0.18
2023-04-05T00:44:57.567Z,-0.31
2023-04-05T00:50:01.724Z,-0.47
2023-04-05T00:55:05.869Z,-0.51
2023-04-05T01:00:09.989Z,-0.52
2023-04-05T01:05:14.198Z,-0.68
2023-04-05T01:10:18.347Z,-0.79
2023-04-05T01:15:22.533Z,-0.92
2023-04-05T01:20:26.665Z,-0.87
2023-04-05T01:25:30.858Z,-0.90
2023-04-05T01:30:34.981Z,-0.91
2023-04-05T01:35:37.286Z,-0.95
2023-04-05T01:40:41.619Z,-1.02
2023-04-05T01:45:43.737Z,-1.03
2023-04-05T01:50:47.902Z,-0.98
2023-04-05T01:55:50.181Z,-1.02
2023-04-05T02:00:54.368Z,-1.08
2023-04-05T02:05:58.521Z,-1.20
2023-04-05T02:11:02.677Z,-1.28
2023-04-05T02:16:06.836Z,-1.35
2023-04-05T02:21:11.018Z,-1.28
2023-04-05T02:26:15.147Z,-1.31
2023-04-05T02:31:19.609Z,-1.31
2023-04-05T02:36:23.500Z,-1.29
2023-04-05T02:41:27.648Z,-1.26
2023-04-05T02:46:31.869Z,-1.23
2023-04-05T02:51:35.981Z,-1.37
2023-04-05T02:56:40.167Z,-1.41
2023-04-05T03:01:44.669Z,-1.42
2023-04-05T03:06:48.562Z,-1.45
2023-04-05T03:11:52.657Z,-1.43
2023-04-05T03:16:56.854Z,-1.44
2023-04-05T03:22:01.005Z,-1.46
2023-04-05T03:27:05.177Z,-1.54
2023-04-05T03:32:09.321Z,-1.60
2023-04-05T03:37:13.484Z,-1.56
2023-04-05T03:42:15.771Z,-1.62
2023-04-05T03:47:19.917Z,-1.72
2023-04-05T03:52:24.138Z,-1.77
2023-04-05T03:57:28.241Z,-1.78
2023-04-05T04:02:30.632Z,-1.84
2023-04-05T04:07:34.685Z,-1.90
2023-04-05T04:12:38.846Z,-1.88
2023-04-05T04:17:43.097Z,-1.87
2023-04-05T04:22:47.193Z,-1.91
2023-04-05T04:27:51.356Z,-2.01
2023-04-05T04:32:55.820Z,-2.07
2023-04-05T04:37:59.676Z,-2.09
2023-04-05T04:43:03.871Z,-2.05
2023-04-05T04:48:08.062Z,-2.01
2023-04-05T04:53:12.259Z,-2.02
2023-04-05T04:58:16.402Z,-2.04
2023-04-05T05:03:20.512Z,-2.05
2023-04-05T05:08:24.720Z,-2.06
2023-04-05T05:13:28.893Z,-2.12
2023-04-05T05:18:33.048Z,-2.16
2023-04-05T05:23:37.203Z,-2.19
2023-04-05T05:28:41.361Z,-2.16
2023-04-05T05:33:45.530Z,-2.07
2023-04-05T05:38:49.687Z,-1.96
2023-04-05T05:43:53.922Z,-1.98
2023-04-05T05:48:56.191Z,-2.01
2023-04-05T05:54:00.348Z,-1.98
2023-04-05T05:59:02.629Z,-1.97
2023-04-05T06:04:06.845Z,-1.89
2023-04-05T06:09:10.932Z,-1.78
2023-04-05T06:14:15.138Z,-1.65
2023-04-05T06:19:19.314Z,-1.38
2023-04-05T06:24:23.405Z,-1.22
2023-04-05T06:29:27.612Z,-1.08
2023-04-05T06:34:31.775Z,-0.87
2023-04-05T06:39:35.923Z,-0.67
2023-04-05T06:44:40.128Z,-0.43
2023-04-05T06:49:44.260Z,-0.26
2023-04-05T06:54:48.432Z,-0.01
2023-04-05T06:59:52.614Z,0.20
2023-04-05T07:04:56.789Z,0.47
2023-04-05T07:10:00.986Z,0.80
2023-04-05T07:15:05.087Z,1.07
2023-04-05T07:20:09.269Z,1.35
2023-04-05T07:25:13.472Z,1.60
2023-04-05T07:30:17.605Z,1.93
2023-04-05T07:35:21.783Z,2.25
2023-04-05T07:40:25.920Z,2.54
2023-04-05T07:45:28.205Z,2.82
2023-04-05T07:50:32.352Z,3.28
2023-04-05T07:55:34.632Z,3.53
2023-04-05T08:00:39.231Z,3.80
2023-04-05T08:05:42.965Z,4.17
2023-04-05T08:10:47.108Z,4.41
2023-04-05T08:15:51.287Z,4.60
2023-04-05T08:20:55.438Z,4.93
2023-04-05T08:25:59.635Z,5.09
2023-04-05T08:31:03.751Z,5.38
2023-04-05T08:36:07.932Z,5.53
2023-04-05T08:41:12.110Z,5.51
2023-04-05T08:46:16.316Z,5.75
2023-04-05T08:51:20.410Z,5.89
2023-04-05T08:56:24.604Z,6.20
2023-04-05T09:01:28.819Z,6.31
2023-04-05T09:06:31.045Z,6.35
2023-04-05T09:11:35.170Z,6.53
2023-04-05T09:16:39.477Z,6.74
2023-04-05T09:21:43.520Z,6.86
2023-04-05T09:26:47.701Z,7.08
2023-04-05T09:31:51.934Z,7.20
2023-04-05T09:36:56.006Z,7.10
2023-04-05T09:41:58.270Z,7.29
2023-04-05T09:47:02.456Z,7.40
2023-04-05T09:52:06.610Z,7.49
2023-04-05T09:57:10.766Z,7.68
2023-04-05T10:02:14.934Z,7.77
2023-04-05T10:07:19.120Z,7.78
2023-04-05T10:12:23.233Z,7.77
2023-04-05T10:17:27.431Z,8.06
2023-04-05T10:22:31.560Z,8.38
2023-04-05T10:27:35.734Z,8.42
2023-04-05T10:32:39.971Z,8.47
2023-04-05T10:37:44.051Z,8.53
2023-04-05T10:42:48.224Z,8.78
2023-04-05T10:47:52.434Z,8.80
2023-04-05T10:52:56.537Z,8.90
2023-04-05T10:58:00.717Z,9.08
2023-04-05T11:03:04.902Z,9.31
2023-04-05T11:08:08.990Z,9.27
2023-04-05T11:13:13.181Z,9.32
2023-04-05T11:18:17.334Z,9.53
2023-04-05T11:23:21.528Z,9.60
2023-04-05T11:28:23.782Z,9.65
2023-04-05T11:33:27.957Z,9.74
2023-04-05T11:38:30.214Z,9.90
2023-04-05T11:43:34.341Z,9.95
2023-04-05T11:48:36.631Z,9.98
2023-04-05T11:53:40.814Z,10.23
2023-04-05T11:58:44.976Z,10.31
2023-04-05T12:03:49.214Z,9.91
2023-04-05T12:08:53.306Z,10.24
2023-04-05T12:13:57.435Z,9.98
2023-04-05T12:19:01.644Z,10.11
2023-04-05T12:29:09.922Z,10.29
2023-04-05T12:34:14.102Z,10.55
2023-04-05T12:39:18.246Z,10.80
2023-04-05T12:44:22.391Z,10.92
2023-04-05T12:49:26.568Z,11.00
2023-04-05T12:54:30.717Z,11.05
2023-04-05T12:59:34.934Z,11.07
2023-04-05T13:04:39.069Z,11.33
2023-04-05T13:09:43.186Z,11.17
2023-04-05T13:14:47.386Z,11.25
2023-04-05T13:19:51.539Z,11.28
2023-04-05T13:24:55.704Z,11.19
2023-04-05T13:29:59.859Z,11.52
2023-04-05T13:35:04.033Z,11.04
2023-04-05T13:40:06.282Z,11.06
2023-04-05T13:45:10.462Z,10.86
2023-04-05T13:50:14.620Z,10.69
2023-04-05T13:55:16.892Z,10.85
2023-04-05T14:00:21.280Z,10.87
2023-04-05T14:05:25.191Z,10.88
2023-04-05T14:10:29.349Z,11.23
2023-04-05T14:15:33.524Z,11.38
2023-04-05T14:20:37.703Z,11.41
2023-04-05T14:25:41.985Z,11.50
2023-04-05T14:30:46.038Z,11.69
2023-04-05T14:35:50.186Z,11.74
2023-04-05T14:40:54.345Z,11.88
2023-04-05T14:45:58.534Z,11.61
2023-04-05T14:51:02.647Z,12.01
2023-04-05T14:56:06.827Z,11.61
2023-04-05T15:01:11.007Z,11.71
2023-04-05T15:06:15.150Z,11.39
2023-04-05T15:11:19.285Z,11.55
2023-04-05T15:16:23.495Z,11.54
2023-04-05T15:21:27.627Z,11.77
2023-04-05T15:26:31.781Z,11.73
2023-04-05T15:31:36.036Z,11.61
2023-04-05T15:36:40.100Z,11.85
2023-04-05T15:41:42.378Z,11.63
2023-04-05T15:46:46.689Z,11.54
2023-04-05T15:51:48.842Z,11.67
2023-04-05T15:56:52.992Z,11.42
2023-04-05T16:01:57.189Z,11.75
2023-04-05T16:07:01.305Z,13.31
2023-04-05T16:12:05.504Z,14.08
2023-04-05T16:17:09.603Z,15.27
2023-04-05T16:22:13.773Z,16.21
2023-04-05T16:27:17.903Z,15.64
2023-04-05T16:32:22.231Z,15.37
2023-04-05T16:37:26.267Z,15.98
2023-04-05T16:42:30.396Z,16.27
2023-04-05T16:47:34.547Z,14.45
2023-04-05T16:52:38.713Z,13.55
2023-04-05T17:02:47.064Z,11.87
2023-04-05T17:07:51.165Z,11.12
2023-04-05T17:12:55.337Z,10.60
2023-04-05T17:17:59.584Z,10.13
2023-04-05T17:23:03.697Z,9.82
2023-04-05T17:28:07.828Z,9.51
2023-04-05T17:33:12.034Z,9.06
2023-04-05T17:38:16.161Z,8.92
2023-04-05T17:43:18.445Z,8.59
2023-04-05T17:48:22.611Z,8.36
2023-04-05T17:53:24.875Z,8.16
2023-04-05T17:58:29.391Z,7.96
2023-04-05T18:03:33.262Z,7.68
2023-04-05T18:08:37.346Z,7.46
2023-04-05T18:13:41.497Z,7.27
2023-04-05T18:18:45.700Z,7.22
2023-04-05T18:23:49.817Z,7.03
2023-04-05T18:28:53.995Z,6.71
2023-04-05T18:33:58.198Z,6.57
2023-04-05T18:39:02.309Z,6.41
2023-04-05T18:44:06.507Z,6.21
2023-04-05T18:49:10.658Z,6.12
2023-04-05T18:54:14.812Z,5.87
2023-04-05T18:59:19.059Z,5.60
2023-04-05T19:04:23.174Z,5.42
2023-04-05T19:09:27.291Z,5.18
2023-04-05T19:14:31.536Z,4.99
2023-04-05T19:19:35.603Z,4.77
2023-04-05T19:24:39.768Z,4.57
2023-04-05T19:29:43.998Z,4.43
2023-04-05T19:34:48.137Z,4.32
2023-04-05T19:39:50.404Z,4.17
2023-04-05T19:44:54.585Z,4.05
2023-04-05T19:49:58.728Z,3.88
2023-04-05T19:55:01.029Z,3.75
2023-04-05T20:00:05.157Z,3.65
2023-04-05T20:05:09.329Z,3.45
2023-04-05T20:10:13.454Z,3.33
2023-04-05T20:15:17.662Z,3.22
2023-04-05T20:20:21.813Z,3.03
2023-04-05T20:25:25.980Z,3.04
2023-04-05T20:30:30.133Z,2.98
2023-04-05T20:35:34.348Z,2.84
2023-04-05T20:40:38.470Z,2.72
2023-04-05T20:45:42.654Z,2.55
2023-04-05T20:50:46.790Z,2.37
2023-04-05T20:55:50.947Z,2.25
2023-04-05T21:00:55.147Z,2.17
2023-04-05T21:05:59.308Z,2.07
2023-04-05T21:11:03.456Z,1.99
2023-04-05T21:16:07.818Z,1.95
2023-04-05T21:21:11.803Z,1.83
2023-04-05T21:26:15.948Z,1.72
2023-04-05T21:31:20.199Z,1.61
2023-04-05T21:36:24.257Z,1.55
2023-04-05T21:41:26.571Z,1.48
2023-04-05T21:46:30.793Z,1.48
2023-04-05T21:51:34.869Z,1.46
2023-04-05T21:56:37.160Z,1.34
2023-04-05T22:01:41.344Z,1.32
2023-04-05T22:06:45.505Z,1.33
2023-04-05T22:11:49.677Z,1.32
2023-04-05T22:16:53.876Z,1.34
2023-04-05T22:21:58.013Z,1.21
2023-04-05T22:27:02.135Z,1.05
2023-04-05T22:32:06.446Z,0.94
2023-04-05T22:37:10.481Z,0.91
2023-04-05T22:42:14.632Z,0.76
2023-04-05T22:47:18.803Z,0.61
2023-04-05T22:52:22.964Z,0.46
2023-04-05T22:57:27.141Z,0.35
2023-04-05T23:02:31.341Z,0.21
2023-04-05T23:07:35.470Z,0.29
2023-04-05T23:12:39.628Z,0.19
2023-04-05T23:17:43.916Z,0.13
2023-04-05T23:22:47.996Z,0.03
2023-04-05T23:27:52.126Z,-0.07
2023-04-05T23:32:56.332Z,-0.14
2023-04-05T23:38:00.474Z,-0.15
2023-04-05T23:43:02.767Z,-0.07
2023-04-05T23:48:06.941Z,-0.17
2023-04-05T23:53:09.157Z,-0.28
2023-04-05T23:58:13.386Z,-0.11
